sensor_id;sensor_type;location;lat;lon;timestamp;P1;durP1;ratioP1;P2;durP2;ratioP2
7493;SDS011;3788;49.902;8.590;2022-11-02T00:01:43;3.77;;;1.77;;
7493;SDS011;3788;49.902;8.590;2022-11-02T00:04:10;6.27;;;1.50;;
7493;SDS011;3788;49.902;8.590;2022-11-02T00:06:38;5.87;;;1.80;;
7493;SDS011;3788;49.902;8.590;2022-11-02T00:09:05;4.23;;;2.17;;
7493;SDS011;3788;49.902;8.590;2022-11-02T00:11:32;5.20;;;2.00;;
7493;SDS011;3788;49.902;8.590;2022-11-02T00:14:01;3.07;;;1.70;;
7493;SDS011;3788;49.902;8.590;2022-11-02T00:16:28;2.37;;;1.80;;
7493;SDS011;3788;49.902;8.590;2022-11-02T00:18:55;6.63;;;1.80;;
7493;SDS011;3788;49.902;8.590;2022-11-02T00:21:25;6.53;;;2.07;;
7493;SDS011;3788;49.902;8.590;2022-11-02T00:23:54;6.87;;;2.10;;
7493;SDS011;3788;49.902;8.590;2022-11-02T00:26:22;6.63;;;1.90;;
7493;SDS011;3788;49.902;8.590;2022-11-02T00:28:49;2.17;;;1.60;;
7493;SDS011;3788;49.902;8.590;2022-11-02T00:31:16;5.27;;;2.20;;
7493;SDS011;3788;49.902;8.590;2022-11-02T00:33:43;4.73;;;1.83;;
7493;SDS011;3788;49.902;8.590;2022-11-02T00:36:09;5.60;;;1.80;;
7493;SDS011;3788;49.902;8.590;2022-11-02T00:38:36;4.53;;;1.60;;
7493;SDS011;3788;49.902;8.590;2022-11-02T00:41:05;3.63;;;1.60;;
7493;SDS011;3788;49.902;8.590;2022-11-02T00:43:32;3.67;;;1.63;;
7493;SDS011;3788;49.902;8.590;2022-11-02T00:45:58;4.97;;;2.07;;
7493;SDS011;3788;49.902;8.590;2022-11-02T00:48:25;2.53;;;1.90;;
7493;SDS011;3788;49.902;8.590;2022-11-02T00:50:52;2.50;;;1.70;;
7493;SDS011;3788;49.902;8.590;2022-11-02T00:53:19;4.43;;;1.77;;
7493;SDS011;3788;49.902;8.590;2022-11-02T00:55:46;3.13;;;1.60;;
7493;SDS011;3788;49.902;8.590;2022-11-02T00:58:14;5.80;;;1.67;;
7493;SDS011;3788;49.902;8.590;2022-11-02T01:00:40;5.70;;;1.77;;
7493;SDS011;3788;49.902;8.590;2022-11-02T01:03:07;3.13;;;1.40;;
7493;SDS011;3788;49.902;8.590;2022-11-02T01:05:35;2.90;;;1.40;;
7493;SDS011;3788;49.902;8.590;2022-11-02T01:08:02;5.30;;;2.23;;
7493;SDS011;3788;49.902;8.590;2022-11-02T01:10:29;2.90;;;1.90;;
7493;SDS011;3788;49.902;8.590;2022-11-02T01:12:56;4.07;;;1.37;;
7493;SDS011;3788;49.902;8.590;2022-11-02T01:15:24;9.03;;;1.77;;
7493;SDS011;3788;49.902;8.590;2022-11-02T01:17:51;6.40;;;1.97;;
7493;SDS011;3788;49.902;8.590;2022-11-02T01:20:17;4.10;;;1.40;;
7493;SDS011;3788;49.902;8.590;2022-11-02T01:22:44;5.57;;;2.33;;
7493;SDS011;3788;49.902;8.590;2022-11-02T01:25:11;4.87;;;1.80;;
7493;SDS011;3788;49.902;8.590;2022-11-02T01:27:38;4.63;;;1.47;;
7493;SDS011;3788;49.902;8.590;2022-11-02T01:30:05;4.47;;;1.80;;
7493;SDS011;3788;49.902;8.590;2022-11-02T01:32:33;5.27;;;1.77;;
7493;SDS011;3788;49.902;8.590;2022-11-02T01:35:00;2.03;;;1.30;;
7493;SDS011;3788;49.902;8.590;2022-11-02T01:37:27;7.30;;;2.50;;
7493;SDS011;3788;49.902;8.590;2022-11-02T01:39:54;6.97;;;1.67;;
7493;SDS011;3788;49.902;8.590;2022-11-02T01:42:21;3.27;;;2.03;;
7493;SDS011;3788;49.902;8.590;2022-11-02T01:44:49;5.00;;;2.03;;
7493;SDS011;3788;49.902;8.590;2022-11-02T01:47:17;4.40;;;1.93;;
7493;SDS011;3788;49.902;8.590;2022-11-02T01:49:48;4.00;;;2.10;;
7493;SDS011;3788;49.902;8.590;2022-11-02T01:52:18;3.83;;;1.60;;
7493;SDS011;3788;49.902;8.590;2022-11-02T01:54:47;2.50;;;1.57;;
7493;SDS011;3788;49.902;8.590;2022-11-02T01:57:19;3.27;;;1.67;;
7493;SDS011;3788;49.902;8.590;2022-11-02T01:59:47;4.30;;;1.87;;
7493;SDS011;3788;49.902;8.590;2022-11-02T02:02:23;7.13;;;1.90;;
7493;SDS011;3788;49.902;8.590;2022-11-02T02:04:53;4.43;;;1.40;;
7493;SDS011;3788;49.902;8.590;2022-11-02T02:07:24;3.70;;;1.77;;
7493;SDS011;3788;49.902;8.590;2022-11-02T02:09:52;5.80;;;1.90;;
7493;SDS011;3788;49.902;8.590;2022-11-02T02:12:20;2.77;;;1.80;;
7493;SDS011;3788;49.902;8.590;2022-11-02T02:14:48;3.20;;;1.70;;
7493;SDS011;3788;49.902;8.590;2022-11-02T02:17:22;4.23;;;1.80;;
7493;SDS011;3788;49.902;8.590;2022-11-02T02:19:59;4.03;;;1.93;;
7493;SDS011;3788;49.902;8.590;2022-11-02T02:28:41;4.17;;;1.43;;
7493;SDS011;3788;49.902;8.590;2022-11-02T02:31:14;6.10;;;1.83;;
7493;SDS011;3788;49.902;8.590;2022-11-02T02:33:47;3.97;;;2.50;;
7493;SDS011;3788;49.902;8.590;2022-11-02T02:36:21;6.93;;;2.17;;
7493;SDS011;3788;49.902;8.590;2022-11-02T02:38:54;6.37;;;1.80;;
7493;SDS011;3788;49.902;8.590;2022-11-02T02:41:28;4.13;;;1.37;;
7493;SDS011;3788;49.902;8.590;2022-11-02T02:44:03;5.63;;;1.67;;
7493;SDS011;3788;49.902;8.590;2022-11-02T02:46:35;4.67;;;1.70;;
7493;SDS011;3788;49.902;8.590;2022-11-02T02:49:05;6.10;;;2.27;;
7493;SDS011;3788;49.902;8.590;2022-11-02T02:51:35;6.43;;;2.17;;
7493;SDS011;3788;49.902;8.590;2022-11-02T02:54:03;5.03;;;2.20;;
7493;SDS011;3788;49.902;8.590;2022-11-02T02:56:34;5.93;;;1.93;;
7493;SDS011;3788;49.902;8.590;2022-11-02T02:59:06;8.87;;;2.13;;
7493;SDS011;3788;49.902;8.590;2022-11-02T03:01:38;5.27;;;2.00;;
7493;SDS011;3788;49.902;8.590;2022-11-02T03:04:07;4.47;;;1.90;;
7493;SDS011;3788;49.902;8.590;2022-11-02T03:06:35;5.00;;;1.93;;
7493;SDS011;3788;49.902;8.590;2022-11-02T03:09:08;10.53;;;2.27;;
7493;SDS011;3788;49.902;8.590;2022-11-02T03:11:40;3.73;;;1.90;;
7493;SDS011;3788;49.902;8.590;2022-11-02T03:14:15;6.43;;;1.93;;
7493;SDS011;3788;49.902;8.590;2022-11-02T03:17:06;5.47;;;2.03;;
7493;SDS011;3788;49.902;8.590;2022-11-02T03:19:41;4.77;;;1.80;;
7493;SDS011;3788;49.902;8.590;2022-11-02T03:22:16;6.97;;;1.80;;
7493;SDS011;3788;49.902;8.590;2022-11-02T03:24:48;5.30;;;2.70;;
7493;SDS011;3788;49.902;8.590;2022-11-02T03:27:26;4.97;;;1.57;;
7493;SDS011;3788;49.902;8.590;2022-11-02T03:30:02;7.30;;;2.20;;
7493;SDS011;3788;49.902;8.590;2022-11-02T03:32:34;6.93;;;1.77;;
7493;SDS011;3788;49.902;8.590;2022-11-02T03:35:07;5.23;;;1.80;;
7493;SDS011;3788;49.902;8.590;2022-11-02T03:37:40;5.63;;;1.80;;
7493;SDS011;3788;49.902;8.590;2022-11-02T03:40:13;4.73;;;1.80;;
7493;SDS011;3788;49.902;8.590;2022-11-02T03:42:44;4.80;;;2.20;;
7493;SDS011;3788;49.902;8.590;2022-11-02T03:45:15;7.10;;;2.10;;
7493;SDS011;3788;49.902;8.590;2022-11-02T03:47:44;3.83;;;2.17;;
7493;SDS011;3788;49.902;8.590;2022-11-02T03:50:15;4.87;;;1.83;;
7493;SDS011;3788;49.902;8.590;2022-11-02T03:52:47;4.57;;;2.30;;
7493;SDS011;3788;49.902;8.590;2022-11-02T03:55:24;4.63;;;2.30;;
7493;SDS011;3788;49.902;8.590;2022-11-02T03:57:54;6.63;;;2.30;;
7493;SDS011;3788;49.902;8.590;2022-11-02T04:00:23;3.10;;;2.40;;
7493;SDS011;3788;49.902;8.590;2022-11-02T04:02:52;5.93;;;1.97;;
7493;SDS011;3788;49.902;8.590;2022-11-02T04:05:26;7.27;;;2.17;;
7493;SDS011;3788;49.902;8.590;2022-11-02T04:07:53;3.90;;;1.93;;
7493;SDS011;3788;49.902;8.590;2022-11-02T04:10:39;4.33;;;2.00;;
7493;SDS011;3788;49.902;8.590;2022-11-02T04:13:25;8.37;;;2.57;;
7493;SDS011;3788;49.902;8.590;2022-11-02T04:16:12;5.63;;;2.27;;
7493;SDS011;3788;49.902;8.590;2022-11-02T04:18:39;3.17;;;2.17;;
7493;SDS011;3788;49.902;8.590;2022-11-02T04:21:23;5.10;;;2.37;;
7493;SDS011;3788;49.902;8.590;2022-11-02T04:23:50;4.60;;;2.10;;
7493;SDS011;3788;49.902;8.590;2022-11-02T04:26:34;3.67;;;1.87;;
7493;SDS011;3788;49.902;8.590;2022-11-02T04:29:01;9.17;;;2.00;;
7493;SDS011;3788;49.902;8.590;2022-11-02T04:31:29;4.90;;;2.03;;
7493;SDS011;3788;49.902;8.590;2022-11-02T04:33:56;3.67;;;2.03;;
7493;SDS011;3788;49.902;8.590;2022-11-02T04:36:24;8.27;;;2.10;;
7493;SDS011;3788;49.902;8.590;2022-11-02T04:38:51;7.93;;;2.70;;
7493;SDS011;3788;49.902;8.590;2022-11-02T04:41:17;4.07;;;2.10;;
7493;SDS011;3788;49.902;8.590;2022-11-02T04:44:03;7.27;;;2.47;;
7493;SDS011;3788;49.902;8.590;2022-11-02T04:46:32;4.50;;;2.23;;
7493;SDS011;3788;49.902;8.590;2022-11-02T04:49:00;5.20;;;2.20;;
7493;SDS011;3788;49.902;8.590;2022-11-02T04:51:28;6.77;;;2.73;;
7493;SDS011;3788;49.902;8.590;2022-11-02T04:53:56;2.67;;;1.73;;
7493;SDS011;3788;49.902;8.590;2022-11-02T04:56:23;4.33;;;1.90;;
7493;SDS011;3788;49.902;8.590;2022-11-02T04:58:52;3.33;;;2.17;;
7493;SDS011;3788;49.902;8.590;2022-11-02T05:01:20;5.43;;;2.73;;
7493;SDS011;3788;49.902;8.590;2022-11-02T05:03:50;5.60;;;2.60;;
7493;SDS011;3788;49.902;8.590;2022-11-02T05:06:18;6.23;;;2.63;;
7493;SDS011;3788;49.902;8.590;2022-11-02T05:08:46;5.20;;;1.83;;
7493;SDS011;3788;49.902;8.590;2022-11-02T05:11:13;8.50;;;2.30;;
7493;SDS011;3788;49.902;8.590;2022-11-02T05:13:40;4.47;;;2.10;;
7493;SDS011;3788;49.902;8.590;2022-11-02T05:16:09;4.10;;;2.10;;
7493;SDS011;3788;49.902;8.590;2022-11-02T05:18:37;5.73;;;2.33;;
7493;SDS011;3788;49.902;8.590;2022-11-02T05:21:05;6.47;;;2.10;;
7493;SDS011;3788;49.902;8.590;2022-11-02T05:23:32;5.03;;;2.10;;
7493;SDS011;3788;49.902;8.590;2022-11-02T05:25:59;10.57;;;3.53;;
7493;SDS011;3788;49.902;8.590;2022-11-02T05:28:27;4.13;;;2.10;;
7493;SDS011;3788;49.902;8.590;2022-11-02T05:30:56;8.60;;;3.73;;
7493;SDS011;3788;49.902;8.590;2022-11-02T05:33:24;7.93;;;2.03;;
7493;SDS011;3788;49.902;8.590;2022-11-02T05:35:51;6.27;;;2.50;;
7493;SDS011;3788;49.902;8.590;2022-11-02T05:38:21;5.10;;;2.33;;
7493;SDS011;3788;49.902;8.590;2022-11-02T05:40:50;5.80;;;2.47;;
7493;SDS011;3788;49.902;8.590;2022-11-02T05:43:17;5.03;;;2.20;;
7493;SDS011;3788;49.902;8.590;2022-11-02T05:45:49;6.03;;;2.43;;
7493;SDS011;3788;49.902;8.590;2022-11-02T05:48:18;4.73;;;2.33;;
7493;SDS011;3788;49.902;8.590;2022-11-02T05:50:45;3.20;;;2.30;;
7493;SDS011;3788;49.902;8.590;2022-11-02T05:53:11;9.80;;;3.47;;
7493;SDS011;3788;49.902;8.590;2022-11-02T05:55:39;9.00;;;2.63;;
7493;SDS011;3788;49.902;8.590;2022-11-02T05:58:06;5.47;;;2.40;;
7493;SDS011;3788;49.902;8.590;2022-11-02T06:00:33;7.77;;;2.70;;
7493;SDS011;3788;49.902;8.590;2022-11-02T06:02:59;4.80;;;2.10;;
7493;SDS011;3788;49.902;8.590;2022-11-02T06:05:26;6.93;;;1.97;;
7493;SDS011;3788;49.902;8.590;2022-11-02T06:07:56;4.17;;;2.03;;
7493;SDS011;3788;49.902;8.590;2022-11-02T06:10:23;4.47;;;2.30;;
7493;SDS011;3788;49.902;8.590;2022-11-02T06:12:54;4.83;;;2.17;;
7493;SDS011;3788;49.902;8.590;2022-11-02T06:15:21;3.97;;;2.00;;
7493;SDS011;3788;49.902;8.590;2022-11-02T06:17:48;6.37;;;2.33;;
7493;SDS011;3788;49.902;8.590;2022-11-02T06:20:15;2.80;;;2.00;;
7493;SDS011;3788;49.902;8.590;2022-11-02T06:22:42;6.00;;;2.20;;
7493;SDS011;3788;49.902;8.590;2022-11-02T06:25:09;7.27;;;1.80;;
7493;SDS011;3788;49.902;8.590;2022-11-02T06:27:36;5.00;;;1.93;;
7493;SDS011;3788;49.902;8.590;2022-11-02T06:30:05;5.10;;;2.67;;
7493;SDS011;3788;49.902;8.590;2022-11-02T06:32:33;4.43;;;2.30;;
7493;SDS011;3788;49.902;8.590;2022-11-02T06:35:00;6.50;;;2.37;;
7493;SDS011;3788;49.902;8.590;2022-11-02T06:37:27;5.70;;;2.07;;
7493;SDS011;3788;49.902;8.590;2022-11-02T06:39:53;4.47;;;1.93;;
7493;SDS011;3788;49.902;8.590;2022-11-02T06:42:20;6.73;;;2.20;;
7493;SDS011;3788;49.902;8.590;2022-11-02T06:44:47;5.33;;;2.13;;
7493;SDS011;3788;49.902;8.590;2022-11-02T06:47:15;4.33;;;2.03;;
7493;SDS011;3788;49.902;8.590;2022-11-02T06:49:42;2.37;;;1.80;;
7493;SDS011;3788;49.902;8.590;2022-11-02T06:52:08;4.57;;;2.10;;
7493;SDS011;3788;49.902;8.590;2022-11-02T06:54:35;6.57;;;2.93;;
7493;SDS011;3788;49.902;8.590;2022-11-02T06:57:02;3.90;;;2.43;;
7493;SDS011;3788;49.902;8.590;2022-11-02T06:59:28;4.50;;;1.90;;
7493;SDS011;3788;49.902;8.590;2022-11-02T07:01:55;8.20;;;2.63;;
7493;SDS011;3788;49.902;8.590;2022-11-02T07:04:23;5.57;;;2.20;;
7493;SDS011;3788;49.902;8.590;2022-11-02T07:06:50;6.47;;;2.30;;
7493;SDS011;3788;49.902;8.590;2022-11-02T07:09:16;5.83;;;2.70;;
7493;SDS011;3788;49.902;8.590;2022-11-02T07:11:43;3.40;;;2.13;;
7493;SDS011;3788;49.902;8.590;2022-11-02T07:14:10;7.73;;;3.00;;
7493;SDS011;3788;49.902;8.590;2022-11-02T07:16:37;3.90;;;1.93;;
7493;SDS011;3788;49.902;8.590;2022-11-02T07:19:04;6.37;;;2.10;;
7493;SDS011;3788;49.902;8.590;2022-11-02T07:21:32;8.63;;;2.43;;
7493;SDS011;3788;49.902;8.590;2022-11-02T07:23:59;8.33;;;2.70;;
7493;SDS011;3788;49.902;8.590;2022-11-02T07:26:26;6.60;;;2.27;;
7493;SDS011;3788;49.902;8.590;2022-11-02T07:28:53;7.17;;;2.03;;
7493;SDS011;3788;49.902;8.590;2022-11-02T07:31:20;5.10;;;2.00;;
7493;SDS011;3788;49.902;8.590;2022-11-02T07:33:47;4.93;;;2.00;;
7493;SDS011;3788;49.902;8.590;2022-11-02T07:36:13;5.73;;;2.50;;
7493;SDS011;3788;49.902;8.590;2022-11-02T07:38:41;3.77;;;1.60;;
7493;SDS011;3788;49.902;8.590;2022-11-02T07:41:08;4.03;;;2.10;;
7493;SDS011;3788;49.902;8.590;2022-11-02T07:43:35;6.03;;;1.97;;
7493;SDS011;3788;49.902;8.590;2022-11-02T07:46:02;7.13;;;2.33;;
7493;SDS011;3788;49.902;8.590;2022-11-02T07:48:30;5.60;;;1.50;;
7493;SDS011;3788;49.902;8.590;2022-11-02T07:50:57;3.93;;;1.53;;
7493;SDS011;3788;49.902;8.590;2022-11-02T07:53:24;2.67;;;1.40;;
7493;SDS011;3788;49.902;8.590;2022-11-02T07:55:52;5.30;;;2.27;;
7493;SDS011;3788;49.902;8.590;2022-11-02T07:58:19;3.33;;;1.50;;
7493;SDS011;3788;49.902;8.590;2022-11-02T08:00:46;6.93;;;1.60;;
7493;SDS011;3788;49.902;8.590;2022-11-02T08:03:12;4.07;;;1.90;;
7493;SDS011;3788;49.902;8.590;2022-11-02T08:05:40;1.87;;;1.10;;
7493;SDS011;3788;49.902;8.590;2022-11-02T08:08:09;3.00;;;1.63;;
7493;SDS011;3788;49.902;8.590;2022-11-02T08:10:37;4.73;;;1.63;;
7493;SDS011;3788;49.902;8.590;2022-11-02T08:13:05;7.97;;;1.70;;
7493;SDS011;3788;49.902;8.590;2022-11-02T08:15:32;2.53;;;1.50;;
7493;SDS011;3788;49.902;8.590;2022-11-02T08:17:59;5.40;;;1.90;;
7493;SDS011;3788;49.902;8.590;2022-11-02T08:20:27;4.50;;;1.80;;
7493;SDS011;3788;49.902;8.590;2022-11-02T08:22:53;4.57;;;1.90;;
7493;SDS011;3788;49.902;8.590;2022-11-02T08:25:20;4.37;;;2.00;;
7493;SDS011;3788;49.902;8.590;2022-11-02T08:27:47;4.83;;;1.40;;
7493;SDS011;3788;49.902;8.590;2022-11-02T08:30:15;2.17;;;1.47;;
7493;SDS011;3788;49.902;8.590;2022-11-02T08:32:42;3.50;;;1.30;;
7493;SDS011;3788;49.902;8.590;2022-11-02T08:35:09;6.23;;;1.60;;
7493;SDS011;3788;49.902;8.590;2022-11-02T08:37:36;2.60;;;1.50;;
7493;SDS011;3788;49.902;8.590;2022-11-02T08:40:03;4.20;;;1.50;;
7493;SDS011;3788;49.902;8.590;2022-11-02T08:42:30;3.60;;;1.57;;
7493;SDS011;3788;49.902;8.590;2022-11-02T08:44:57;3.63;;;1.30;;
7493;SDS011;3788;49.902;8.590;2022-11-02T08:47:25;4.37;;;1.20;;
7493;SDS011;3788;49.902;8.590;2022-11-02T08:49:51;3.83;;;1.90;;
7493;SDS011;3788;49.902;8.590;2022-11-02T08:52:18;3.47;;;1.33;;
7493;SDS011;3788;49.902;8.590;2022-11-02T08:54:45;6.53;;;2.00;;
7493;SDS011;3788;49.902;8.590;2022-11-02T08:57:11;4.70;;;1.93;;
7493;SDS011;3788;49.902;8.590;2022-11-02T08:59:38;3.97;;;1.40;;
7493;SDS011;3788;49.902;8.590;2022-11-02T09:02:05;5.13;;;1.60;;
7493;SDS011;3788;49.902;8.590;2022-11-02T09:04:33;4.13;;;1.60;;
7493;SDS011;3788;49.902;8.590;2022-11-02T09:07:00;5.17;;;1.60;;
7493;SDS011;3788;49.902;8.590;2022-11-02T09:09:27;3.67;;;1.60;;
7493;SDS011;3788;49.902;8.590;2022-11-02T09:11:53;4.40;;;1.97;;
7493;SDS011;3788;49.902;8.590;2022-11-02T09:14:20;5.73;;;1.60;;
7493;SDS011;3788;49.902;8.590;2022-11-02T09:16:47;5.37;;;1.40;;
7493;SDS011;3788;49.902;8.590;2022-11-02T09:19:13;3.13;;;1.43;;
7493;SDS011;3788;49.902;8.590;2022-11-02T09:21:42;3.73;;;1.70;;
7493;SDS011;3788;49.902;8.590;2022-11-02T09:24:08;4.83;;;1.67;;
7493;SDS011;3788;49.902;8.590;2022-11-02T09:26:35;5.07;;;1.50;;
7493;SDS011;3788;49.902;8.590;2022-11-02T09:29:02;5.27;;;1.73;;
7493;SDS011;3788;49.902;8.590;2022-11-02T09:31:29;4.17;;;1.67;;
7493;SDS011;3788;49.902;8.590;2022-11-02T09:33:55;5.13;;;1.83;;
7493;SDS011;3788;49.902;8.590;2022-11-02T09:36:22;2.83;;;1.30;;
7493;SDS011;3788;49.902;8.590;2022-11-02T09:38:50;4.83;;;2.43;;
7493;SDS011;3788;49.902;8.590;2022-11-02T09:41:18;5.90;;;1.63;;
7493;SDS011;3788;49.902;8.590;2022-11-02T09:43:52;6.60;;;1.93;;
7493;SDS011;3788;49.902;8.590;2022-11-02T09:46:26;5.03;;;1.80;;
7493;SDS011;3788;49.902;8.590;2022-11-02T09:48:57;6.20;;;1.70;;
7493;SDS011;3788;49.902;8.590;2022-11-02T09:51:30;5.20;;;1.60;;
7493;SDS011;3788;49.902;8.590;2022-11-02T09:54:04;4.87;;;1.60;;
7493;SDS011;3788;49.902;8.590;2022-11-02T09:56:33;4.50;;;1.30;;
7493;SDS011;3788;49.902;8.590;2022-11-02T09:59:01;2.97;;;1.33;;
7493;SDS011;3788;49.902;8.590;2022-11-02T10:01:33;8.67;;;1.70;;
7493;SDS011;3788;49.902;8.590;2022-11-02T10:04:29;6.77;;;1.63;;
7493;SDS011;3788;49.902;8.590;2022-11-02T10:07:19;4.63;;;1.70;;
7493;SDS011;3788;49.902;8.590;2022-11-02T10:09:56;6.30;;;1.90;;
7493;SDS011;3788;49.902;8.590;2022-11-02T10:12:27;6.97;;;1.83;;
7493;SDS011;3788;49.902;8.590;2022-11-02T10:15:04;6.07;;;1.90;;
7493;SDS011;3788;49.902;8.590;2022-11-02T10:17:36;4.40;;;2.23;;
7493;SDS011;3788;49.902;8.590;2022-11-02T10:20:06;3.20;;;1.40;;
7493;SDS011;3788;49.902;8.590;2022-11-02T10:22:42;3.97;;;1.53;;
7493;SDS011;3788;49.902;8.590;2022-11-02T10:25:12;4.97;;;1.60;;
7493;SDS011;3788;49.902;8.590;2022-11-02T10:27:42;5.77;;;1.73;;
7493;SDS011;3788;49.902;8.590;2022-11-02T10:30:13;5.13;;;1.70;;
7493;SDS011;3788;49.902;8.590;2022-11-02T10:32:42;5.80;;;1.77;;
7493;SDS011;3788;49.902;8.590;2022-11-02T10:35:15;6.10;;;1.73;;
7493;SDS011;3788;49.902;8.590;2022-11-02T10:37:51;4.70;;;1.50;;
7493;SDS011;3788;49.902;8.590;2022-11-02T10:43:27;4.67;;;1.83;;
7493;SDS011;3788;49.902;8.590;2022-11-02T10:46:09;4.13;;;1.80;;
7493;SDS011;3788;49.902;8.590;2022-11-02T10:48:48;8.37;;;1.97;;
7493;SDS011;3788;49.902;8.590;2022-11-02T10:51:20;5.63;;;1.60;;
7493;SDS011;3788;49.902;8.590;2022-11-02T10:53:49;6.33;;;1.77;;
7493;SDS011;3788;49.902;8.590;2022-11-02T10:56:19;2.80;;;1.50;;
7493;SDS011;3788;49.902;8.590;2022-11-02T10:58:52;4.03;;;1.30;;
7493;SDS011;3788;49.902;8.590;2022-11-02T11:01:24;3.87;;;1.23;;
7493;SDS011;3788;49.902;8.590;2022-11-02T11:03:53;4.30;;;1.70;;
7493;SDS011;3788;49.902;8.590;2022-11-02T11:06:22;5.23;;;1.80;;
7493;SDS011;3788;49.902;8.590;2022-11-02T11:08:51;3.50;;;1.30;;
7493;SDS011;3788;49.902;8.590;2022-11-02T11:11:27;4.73;;;1.60;;
7493;SDS011;3788;49.902;8.590;2022-11-02T11:13:57;5.03;;;1.80;;
7493;SDS011;3788;49.902;8.590;2022-11-02T11:16:29;6.07;;;1.77;;
7493;SDS011;3788;49.902;8.590;2022-11-02T11:18:57;4.90;;;1.57;;
7493;SDS011;3788;49.902;8.590;2022-11-02T11:21:33;2.17;;;1.30;;
7493;SDS011;3788;49.902;8.590;2022-11-02T11:24:10;6.60;;;1.60;;
7493;SDS011;3788;49.902;8.590;2022-11-02T11:26:46;3.37;;;1.80;;
7493;SDS011;3788;49.902;8.590;2022-11-02T11:29:25;3.60;;;1.27;;
7493;SDS011;3788;49.902;8.590;2022-11-02T11:31:56;2.50;;;1.07;;
7493;SDS011;3788;49.902;8.590;2022-11-02T11:34:24;5.13;;;1.50;;
7493;SDS011;3788;49.902;8.590;2022-11-02T11:36:53;3.20;;;1.40;;
7493;SDS011;3788;49.902;8.590;2022-11-02T11:39:30;4.00;;;1.60;;
7493;SDS011;3788;49.902;8.590;2022-11-02T11:41:59;3.73;;;1.60;;
7493;SDS011;3788;49.902;8.590;2022-11-02T11:44:29;2.10;;;1.10;;
7493;SDS011;3788;49.902;8.590;2022-11-02T11:46:57;4.13;;;1.67;;
7493;SDS011;3788;49.902;8.590;2022-11-02T11:49:25;2.97;;;1.37;;
7493;SDS011;3788;49.902;8.590;2022-11-02T11:51:54;4.40;;;1.70;;
7493;SDS011;3788;49.902;8.590;2022-11-02T11:54:23;5.17;;;1.60;;
7493;SDS011;3788;49.902;8.590;2022-11-02T11:56:52;4.57;;;1.30;;
7493;SDS011;3788;49.902;8.590;2022-11-02T11:59:22;4.53;;;1.50;;
7493;SDS011;3788;49.902;8.590;2022-11-02T12:01:56;4.53;;;1.17;;
7493;SDS011;3788;49.902;8.590;2022-11-02T12:04:28;3.60;;;1.43;;
7493;SDS011;3788;49.902;8.590;2022-11-02T12:06:59;5.37;;;1.43;;
7493;SDS011;3788;49.902;8.590;2022-11-02T12:09:36;3.17;;;1.23;;
7493;SDS011;3788;49.902;8.590;2022-11-02T12:12:27;4.93;;;1.70;;
7493;SDS011;3788;49.902;8.590;2022-11-02T12:15:08;4.37;;;1.13;;
7493;SDS011;3788;49.902;8.590;2022-11-02T12:17:48;3.03;;;1.30;;
7493;SDS011;3788;49.902;8.590;2022-11-02T12:20:29;3.97;;;1.33;;
7493;SDS011;3788;49.902;8.590;2022-11-02T12:23:13;4.37;;;1.43;;
7493;SDS011;3788;49.902;8.590;2022-11-02T12:25:53;3.37;;;1.10;;
7493;SDS011;3788;49.902;8.590;2022-11-02T12:28:27;4.97;;;1.50;;
7493;SDS011;3788;49.902;8.590;2022-11-02T12:31:05;3.67;;;1.70;;
7493;SDS011;3788;49.902;8.590;2022-11-02T12:33:45;4.27;;;1.40;;
7493;SDS011;3788;49.902;8.590;2022-11-02T12:36:31;5.37;;;1.50;;
7493;SDS011;3788;49.902;8.590;2022-11-02T12:39:06;3.80;;;1.23;;
7493;SDS011;3788;49.902;8.590;2022-11-02T12:41:36;4.03;;;1.13;;
7493;SDS011;3788;49.902;8.590;2022-11-02T12:44:17;2.93;;;1.70;;
7493;SDS011;3788;49.902;8.590;2022-11-02T12:46:58;3.83;;;1.53;;
7493;SDS011;3788;49.902;8.590;2022-11-02T12:49:35;3.17;;;1.50;;
7493;SDS011;3788;49.902;8.590;2022-11-02T12:52:13;5.67;;;1.40;;
7493;SDS011;3788;49.902;8.590;2022-11-02T12:54:51;2.50;;;1.37;;
7493;SDS011;3788;49.902;8.590;2022-11-02T12:57:22;3.00;;;1.30;;
7493;SDS011;3788;49.902;8.590;2022-11-02T12:59:51;3.70;;;1.30;;
7493;SDS011;3788;49.902;8.590;2022-11-02T13:02:25;3.20;;;1.10;;
7493;SDS011;3788;49.902;8.590;2022-11-02T13:04:57;3.20;;;1.47;;
7493;SDS011;3788;49.902;8.590;2022-11-02T13:07:28;2.80;;;1.20;;
7493;SDS011;3788;49.902;8.590;2022-11-02T13:10:01;2.13;;;1.00;;
7493;SDS011;3788;49.902;8.590;2022-11-02T13:12:32;4.87;;;1.60;;
7493;SDS011;3788;49.902;8.590;2022-11-02T13:15:02;3.73;;;1.50;;
7493;SDS011;3788;49.902;8.590;2022-11-02T13:17:36;5.10;;;1.10;;
7493;SDS011;3788;49.902;8.590;2022-11-02T13:20:12;3.10;;;1.10;;
7493;SDS011;3788;49.902;8.590;2022-11-02T13:22:43;4.10;;;1.57;;
7493;SDS011;3788;49.902;8.590;2022-11-02T13:25:14;3.63;;;1.30;;
7493;SDS011;3788;49.902;8.590;2022-11-02T13:27:46;3.60;;;1.53;;
7493;SDS011;3788;49.902;8.590;2022-11-02T13:30:16;3.13;;;1.30;;
7493;SDS011;3788;49.902;8.590;2022-11-02T13:32:45;3.83;;;1.40;;
7493;SDS011;3788;49.902;8.590;2022-11-02T13:35:17;3.57;;;1.10;;
7493;SDS011;3788;49.902;8.590;2022-11-02T13:37:48;2.33;;;0.90;;
7493;SDS011;3788;49.902;8.590;2022-11-02T13:40:20;3.10;;;1.10;;
7493;SDS011;3788;49.902;8.590;2022-11-02T13:45:54;4.30;;;1.20;;
7493;SDS011;3788;49.902;8.590;2022-11-02T13:48:51;3.80;;;1.37;;
7493;SDS011;3788;49.902;8.590;2022-11-02T13:51:23;4.80;;;1.60;;
7493;SDS011;3788;49.902;8.590;2022-11-02T13:54:00;2.37;;;1.00;;
7493;SDS011;3788;49.902;8.590;2022-11-02T13:56:33;1.67;;;1.07;;
7493;SDS011;3788;49.902;8.590;2022-11-02T13:59:02;2.77;;;1.27;;
7493;SDS011;3788;49.902;8.590;2022-11-02T14:01:31;3.80;;;1.93;;
7493;SDS011;3788;49.902;8.590;2022-11-02T14:04:03;2.47;;;1.00;;
7493;SDS011;3788;49.902;8.590;2022-11-02T14:06:32;3.80;;;1.10;;
7493;SDS011;3788;49.902;8.590;2022-11-02T14:09:20;1.70;;;1.00;;
7493;SDS011;3788;49.902;8.590;2022-11-02T14:11:52;3.33;;;1.23;;
7493;SDS011;3788;49.902;8.590;2022-11-02T14:17:58;4.77;;;1.40;;
7493;SDS011;3788;49.902;8.590;2022-11-02T14:20:34;3.07;;;1.50;;
7493;SDS011;3788;49.902;8.590;2022-11-02T14:26:01;4.73;;;1.60;;
7493;SDS011;3788;49.902;8.590;2022-11-02T14:28:32;2.80;;;1.33;;
7493;SDS011;3788;49.902;8.590;2022-11-02T14:31:22;2.17;;;1.07;;
7493;SDS011;3788;49.902;8.590;2022-11-02T14:33:59;1.50;;;1.00;;
7493;SDS011;3788;49.902;8.590;2022-11-02T14:36:49;3.00;;;1.00;;
7493;SDS011;3788;49.902;8.590;2022-11-02T14:39:27;4.10;;;1.30;;
7493;SDS011;3788;49.902;8.590;2022-11-02T14:42:14;3.67;;;1.17;;
7493;SDS011;3788;49.902;8.590;2022-11-02T14:45:04;2.87;;;1.30;;
7493;SDS011;3788;49.902;8.590;2022-11-02T14:47:46;3.60;;;1.30;;
7493;SDS011;3788;49.902;8.590;2022-11-02T14:50:14;1.30;;;0.97;;
7493;SDS011;3788;49.902;8.590;2022-11-02T14:52:53;2.67;;;1.20;;
7493;SDS011;3788;49.902;8.590;2022-11-02T14:55:24;3.07;;;1.30;;
7493;SDS011;3788;49.902;8.590;2022-11-02T14:57:54;3.33;;;1.07;;
7493;SDS011;3788;49.902;8.590;2022-11-02T15:00:23;4.90;;;1.73;;
7493;SDS011;3788;49.902;8.590;2022-11-02T15:02:54;2.70;;;1.23;;
7493;SDS011;3788;49.902;8.590;2022-11-02T15:05:25;1.40;;;1.10;;
7493;SDS011;3788;49.902;8.590;2022-11-02T15:07:56;2.70;;;1.27;;
7493;SDS011;3788;49.902;8.590;2022-11-02T15:10:42;1.87;;;1.30;;
7493;SDS011;3788;49.902;8.590;2022-11-02T15:13:23;1.87;;;1.27;;
7493;SDS011;3788;49.902;8.590;2022-11-02T15:16:15;1.83;;;1.03;;
7493;SDS011;3788;49.902;8.590;2022-11-02T15:25:02;2.53;;;1.70;;
7493;SDS011;3788;49.902;8.590;2022-11-02T15:27:35;2.90;;;1.40;;
7493;SDS011;3788;49.902;8.590;2022-11-02T15:30:04;3.70;;;1.30;;
7493;SDS011;3788;49.902;8.590;2022-11-02T15:32:33;1.50;;;1.10;;
7493;SDS011;3788;49.902;8.590;2022-11-02T15:35:04;1.63;;;1.10;;
7493;SDS011;3788;49.902;8.590;2022-11-02T15:37:37;1.47;;;1.10;;
7493;SDS011;3788;49.902;8.590;2022-11-02T15:40:06;3.87;;;1.30;;
7493;SDS011;3788;49.902;8.590;2022-11-02T15:42:44;3.70;;;1.70;;
7493;SDS011;3788;49.902;8.590;2022-11-02T15:45:19;2.80;;;1.58;;
7493;SDS011;3788;49.902;8.590;2022-11-02T15:47:55;2.93;;;1.07;;
7493;SDS011;3788;49.902;8.590;2022-11-02T15:50:34;3.20;;;1.43;;
7493;SDS011;3788;49.902;8.590;2022-11-02T15:53:14;1.70;;;1.27;;
7493;SDS011;3788;49.902;8.590;2022-11-02T15:56:02;2.13;;;0.90;;
7493;SDS011;3788;49.902;8.590;2022-11-02T15:58:42;1.40;;;1.23;;
7493;SDS011;3788;49.902;8.590;2022-11-02T16:01:24;2.17;;;1.07;;
7493;SDS011;3788;49.902;8.590;2022-11-02T16:03:52;1.23;;;0.90;;